Time;durP1;ratioP1;P1;durP2;ratioP2;P2;SDS_P1;SDS_P2;PMS_P1;PMS_P2;Temp;Humidity;BMP_temperature;BMP_pressure;BME280_temperature;BME280_humidity;BME280_pressure;Samples;Min_cycle;Max_cycle;Signal;HPM_P1;HPM_P2
2023/05/18 00:02:14;;;;;;;2.57;1.63;;;6.50;66.50;;;6.06;64.20;98658.47;5022982;28;21226;-70
2023/05/18 00:04:42;;;;;;;4.87;1.70;;;6.30;68.00;;;6.34;63.53;98674.19;4999237;28;20491;-71
2023/05/18 00:07:10;;;;;;;6.90;2.20;;;6.40;68.40;;;5.82;64.50;98595.78;5017681;28;20446;-70
2023/05/18 00:09:37;;;;;;;3.43;1.83;;;6.30;68.60;;;6.31;64.27;98669.19;5019842;28;20454;-70
2023/05/18 00:12:07;;;;;;;3.93;2.30;;;6.30;69.50;;;6.31;64.50;98663.81;5014732;28;20472;-71
2023/05/18 00:14:35;;;;;;;5.03;2.40;;;6.40;69.50;;;6.21;64.94;98664.81;5001169;28;20457;-70
2023/05/18 00:17:03;;;;;;;6.60;2.00;;;6.30;69.90;;;6.17;65.00;98655.44;5014758;28;20449;-69
2023/05/18 00:19:30;;;;;;;3.50;1.93;;;6.30;70.30;;;6.15;65.37;98659.31;5018163;28;20563;-70
2023/05/18 00:21:57;;;;;;;4.33;1.90;;;6.30;71.00;;;6.13;65.53;98662.16;5016539;28;20489;-69
2023/05/18 00:24:25;;;;;;;6.40;1.93;;;6.20;71.30;;;6.20;65.33;98647.06;5002788;28;20904;-70
2023/05/18 00:26:52;;;;;;;2.50;1.70;;;6.30;71.40;;;6.13;65.01;98667.50;4999230;28;20460;-69
2023/05/18 00:29:19;;;;;;;2.07;1.60;;;6.30;71.40;;;6.12;64.75;98657.78;4994287;28;20456;-70
2023/05/18 00:31:47;;;;;;;3.40;1.90;;;6.20;71.40;;;5.81;65.12;98599.47;5016212;28;20456;-71
2023/05/18 00:34:16;;;;;;;5.97;2.10;;;6.30;71.40;;;6.04;65.79;98652.47;5000713;28;20554;-70
2023/05/18 00:36:44;;;;;;;3.47;2.10;;;6.20;71.80;;;6.03;65.40;98656.16;5014377;28;20455;-68
2023/05/18 00:39:11;;;;;;;4.50;2.40;;;6.20;71.60;;;5.68;65.19;98602.69;5016020;28;20466;-68
2023/05/18 00:41:38;;;;;;;4.57;1.70;;;6.20;71.70;;;5.89;65.95;98665.69;5017407;28;20467;-70
2023/05/18 00:44:06;;;;;;;3.70;1.90;;;6.10;72.10;;;5.71;66.32;98639.06;5015665;28;20510;-69
2023/05/18 00:46:33;;;;;;;12.23;2.33;;;6.00;72.50;;;5.76;66.87;98666.19;4996278;28;20452;-71
2023/05/18 00:49:01;;;;;;;5.93;2.43;;;5.90;72.70;;;5.70;66.91;98661.53;5000167;28;20552;-70
2023/05/18 00:51:33;;;;;;;3.80;2.00;;;5.80;73.40;;;5.77;66.80;98663.38;4998797;28;20458;-69
2023/05/18 00:54:03;;;;;;;2.20;1.77;;;5.90;73.30;;;5.72;66.45;98659.50;4996281;28;20561;-70
2023/05/18 00:56:32;;;;;;;4.70;2.13;;;5.90;73.20;;;5.47;67.11;98643.41;5014571;28;21018;-69
2023/05/18 00:59:02;;;;;;;1.60;1.50;;;5.80;73.60;;;5.49;67.93;98670.88;5013657;28;20517;-71
2023/05/18 01:01:33;;;;;;;5.40;2.27;;;5.70;74.10;;;5.43;67.98;98675.06;4997681;28;20539;-69
2023/05/18 01:04:03;;;;;;;1.70;1.60;;;5.60;74.80;;;5.46;68.50;98671.22;5011437;28;20574;-69
2023/05/18 01:06:34;;;;;;;4.70;2.20;;;5.50;75.30;;;5.46;68.86;98673.91;5002880;28;20527;-71
2023/05/18 01:09:04;;;;;;;3.77;2.00;;;5.60;75.80;;;4.30;69.87;98531.75;5021653;28;20543;-70
2023/05/18 01:11:40;;;;;;;3.20;2.43;;;5.40;76.20;;;5.15;69.90;98670.00;5019125;28;20471;-70
2023/05/18 01:14:15;;;;;;;2.87;2.30;;;5.30;76.90;;;5.03;70.20;98672.16;5014367;28;20613;-68
2023/05/18 01:16:49;;;;;;;4.27;2.20;;;5.30;77.40;;;5.04;70.67;98663.13;5011677;28;20559;-69
2023/05/18 01:20:06;;;;;;;4.57;2.33;;;5.30;77.80;;;4.98;70.85;98663.78;5013656;28;21019;-67
2023/05/18 01:22:50;;;;;;;4.93;2.17;;;5.20;77.90;;;5.04;70.66;98663.13;4971744;28;20481;-70
2023/05/18 01:25:30;;;;;;;3.87;2.30;;;5.20;78.00;;;5.03;71.61;98665.97;5011245;28;20577;-71
2023/05/18 01:28:04;;;;;;;3.73;2.30;;;5.20;78.30;;;4.98;71.28;98666.47;5005676;28;20880;-69
2023/05/18 01:30:34;;;;;;;5.43;2.20;;;5.20;78.60;;;4.95;70.87;98685.53;5002017;28;20453;-68
2023/05/18 01:33:04;;;;;;;4.60;2.67;;;5.20;78.70;;;4.94;71.24;98657.09;5017691;28;20475;-70
2023/05/18 01:35:31;;;;;;;5.90;2.33;;;5.20;79.20;;;4.99;71.92;98662.78;5013519;28;21225;-70
2023/05/18 01:37:59;;;;;;;5.30;2.30;;;5.10;79.40;;;4.80;72.32;98656.72;5012045;28;20627;-70
2023/05/18 01:40:32;;;;;;;7.00;2.53;;;5.10;79.90;;;4.77;72.53;98662.38;4996961;28;20491;-69
2023/05/18 01:43:08;;;;;;;9.63;3.20;;;5.00;80.50;;;4.68;72.45;98658.00;5014767;28;20504;-69
2023/05/18 01:45:39;;;;;;;2.57;2.37;;;4.90;80.90;;;4.52;73.72;98642.69;4994570;28;20997;-69
2023/05/18 01:48:10;;;;;;;6.10;3.03;;;4.90;81.60;;;4.56;72.94;98643.22;5024735;28;20540;-69
2023/05/18 01:50:43;;;;;;;2.57;2.20;;;4.90;82.10;;;4.79;72.59;98654.19;5001263;28;20460;-67
2023/05/18 01:53:20;;;;;;;5.03;2.30;;;4.90;82.00;;;4.77;73.27;98657.00;4991796;28;20545;-69
2023/05/18 01:55:50;;;;;;;6.43;2.33;;;4.90;82.00;;;4.80;72.46;98658.53;5014290;28;21044;-69
2023/05/18 01:58:20;;;;;;;5.60;2.43;;;4.90;82.10;;;4.58;73.37;98633.19;5008489;28;20471;-68
2023/05/18 02:00:48;;;;;;;5.03;2.70;;;4.90;82.50;;;3.79;73.68;98513.84;5005451;28;21214;-68
2023/05/18 02:03:16;;;;;;;13.03;3.53;;;4.80;83.40;;;4.61;74.73;98655.13;5001166;28;20479;-69
2023/05/18 02:05:43;;;;;;;4.90;3.40;;;4.80;83.80;;;4.73;73.23;98650.31;4994409;28;21020;-69
2023/05/18 02:08:11;;;;;;;3.83;2.40;;;4.90;84.00;;;4.54;74.08;98635.34;4992173;28;20505;-67
2023/05/18 02:10:38;;;;;;;3.27;2.67;;;4.80;83.00;;;4.52;74.48;98638.19;5013683;28;20917;-69
2023/05/18 02:13:05;;;;;;;7.10;2.50;;;4.80;82.90;;;4.46;74.76;98644.19;5009422;28;20470;-72
2023/05/18 02:15:34;;;;;;;4.13;2.77;;;4.70;83.70;;;4.44;74.55;98640.00;5012789;28;20463;-69
2023/05/18 02:18:01;;;;;;;7.27;2.37;;;4.60;84.00;;;4.39;74.55;98635.94;5015542;28;20871;-68
2023/05/18 02:20:32;;;;;;;4.67;2.70;;;4.60;84.70;;;4.41;74.19;98619.75;5015430;28;20467;-69
2023/05/18 02:23:00;;;;;;;2.53;1.60;;;4.60;85.00;;;4.25;75.03;98647.28;4994608;28;20490;-70
2023/05/18 02:25:27;;;;;;;3.23;2.30;;;4.50;84.90;;;4.09;75.58;98621.28;5018074;28;20840;-68
2023/05/18 02:27:54;;;;;;;4.13;2.40;;;4.50;85.80;;;4.35;75.14;98645.31;5014550;28;20863;-69
2023/05/18 02:30:21;;;;;;;4.63;2.40;;;4.40;86.30;;;4.28;75.27;98646.09;4996858;28;20470;-70
2023/05/18 02:32:50;;;;;;;7.33;3.60;;;4.40;85.90;;;4.21;75.72;98640.56;4999574;28;20508;-70
2023/05/18 02:35:17;;;;;;;2.50;2.30;;;4.30;86.80;;;4.18;75.84;98635.53;4993555;28;20462;-69
2023/05/18 02:37:46;;;;;;;7.17;3.23;;;4.30;86.70;;;4.05;75.76;98627.94;4994963;28;20891;-70
2023/05/18 02:40:14;;;;;;;3.00;2.60;;;4.30;87.20;;;3.90;77.02;98631.19;5009550;28;20462;-69
2023/05/18 02:42:41;;;;;;;3.70;2.53;;;4.10;88.10;;;3.86;78.11;98627.16;5012319;28;20480;-69
2023/05/18 02:45:10;;;;;;;5.53;2.60;;;4.00;90.00;;;4.11;77.22;98635.31;5008497;28;20472;-68
2023/05/18 02:47:37;;;;;;;5.53;3.33;;;4.20;90.30;;;3.89;77.52;98629.53;4994578;28;20578;-70
2023/05/18 02:50:07;;;;;;;3.87;2.90;;;4.10;90.10;;;3.72;78.44;98614.38;5019628;28;20585;-69
2023/05/18 02:52:34;;;;;;;5.63;3.23;;;4.00;90.20;;;3.75;79.23;98635.44;5008551;28;21584;-70
2023/05/18 02:55:02;;;;;;;3.97;3.00;;;3.90;90.70;;;3.68;79.51;98638.72;4997098;28;20467;-68
2023/05/18 02:57:30;;;;;;;3.07;2.40;;;3.80;91.50;;;3.68;80.23;98633.38;5011709;28;20966;-70
2023/05/18 02:59:57;;;;;;;4.63;2.70;;;3.90;92.40;;;3.62;79.04;98631.34;5017824;28;20468;-69
2023/05/18 03:02:26;;;;;;;4.87;2.77;;;3.90;91.40;;;3.76;79.11;98621.91;5020154;28;20450;-68
2023/05/18 03:04:56;;;;;;;6.90;3.10;;;4.00;91.80;;;3.67;79.12;98639.72;5016547;28;20472;-68
2023/05/18 03:07:26;;;;;;;5.60;2.77;;;3.90;91.10;;;3.70;78.88;98627.88;4992320;28;20494;-68
2023/05/18 03:09:53;;;;;;;3.40;2.90;;;4.00;91.30;;;3.76;78.91;98643.28;5010522;28;20515;-68
2023/05/18 03:12:20;;;;;;;3.30;2.97;;;4.00;91.00;;;3.59;79.76;98634.34;4999738;28;20864;-68
2023/05/18 03:14:48;;;;;;;3.37;3.07;;;3.90;91.20;;;3.61;79.41;98647.53;5014753;28;20494;-68
2023/05/18 03:17:15;;;;;;;5.67;3.43;;;3.70;91.70;;;3.56;79.22;98639.97;5011023;28;20447;-69
2023/05/18 03:19:42;;;;;;;4.50;2.93;;;3.70;92.10;;;3.44;80.07;98622.53;5010847;28;20511;-69
2023/05/18 03:22:09;;;;;;;4.00;2.80;;;3.70;92.10;;;3.52;80.34;98633.25;4999224;28;20505;-69
2023/05/18 03:24:39;;;;;;;4.20;3.20;;;3.70;92.40;;;3.49;80.06;98636.25;5001866;28;20474;-71
2023/05/18 03:27:07;;;;;;;10.43;3.00;;;3.70;92.80;;;3.49;80.82;98638.91;5015559;28;20525;-70
2023/05/18 03:29:34;;;;;;;4.87;2.80;;;3.70;92.80;;;3.45;80.63;98633.03;5015290;28;20537;-71
2023/05/18 03:32:01;;;;;;;4.93;3.00;;;3.70;93.00;;;3.47;80.79;98627.56;5017618;28;21016;-71
2023/05/18 03:34:29;;;;;;;2.90;2.70;;;3.60;93.20;;;3.61;80.32;98639.50;4999353;28;20477;-70
2023/05/18 03:36:58;;;;;;;2.77;2.57;;;3.70;93.40;;;3.72;80.32;98641.09;5004716;28;20455;-70
2023/05/18 03:39:25;;;;;;;4.10;2.80;;;3.80;94.10;;;3.37;80.15;98584.91;5014603;28;20480;-70
2023/05/18 03:41:54;;;;;;;3.03;2.73;;;3.90;92.80;;;3.69;80.14;98643.06;5015633;28;20459;-68
2023/05/18 03:44:22;;;;;;;4.83;2.77;;;3.90;92.60;;;3.72;80.37;98644.59;5017076;28;22022;-69
2023/05/18 03:46:49;;;;;;;5.83;3.40;;;3.90;92.70;;;3.66;80.31;98632.69;4995836;28;20524;-68
2023/05/18 03:49:16;;;;;;;3.73;3.23;;;3.90;92.60;;;3.69;80.41;98640.41;4997878;28;20468;-69
2023/05/18 03:51:44;;;;;;;6.97;3.30;;;3.90;92.80;;;3.86;80.07;98655.72;4997505;28;20459;-71
2023/05/18 03:54:11;;;;;;;5.73;3.27;;;4.00;93.10;;;3.95;79.23;98647.59;5012471;28;20529;-69
2023/05/18 03:56:38;;;;;;;7.40;3.40;;;4.10;92.20;;;4.02;79.27;98641.59;4987539;28;20471;-68
2023/05/18 03:59:07;;;;;;;3.33;3.03;;;4.20;92.00;;;4.17;79.23;98647.22;5013901;28;20464;-70
2023/05/18 04:01:34;;;;;;;5.30;3.33;;;4.30;91.80;;;4.12;79.05;98647.69;5008926;28;20459;-70
2023/05/18 04:04:01;;;;;;;4.90;4.40;;;4.40;91.10;;;4.24;78.26;98651.78;5013090;28;21061;-70
2023/05/18 04:06:29;;;;;;;6.43;3.23;;;4.50;90.80;;;4.42;78.56;98658.88;5010874;28;20982;-69
2023/05/18 04:09:01;;;;;;;4.20;3.33;;;4.60;90.70;;;4.63;76.87;98658.47;5011307;28;20946;-70
2023/05/18 04:11:28;;;;;;;5.20;3.10;;;4.80;90.30;;;4.74;76.91;98651.16;4995165;28;20446;-69
2023/05/18 04:13:56;;;;;;;3.53;3.03;;;4.90;88.40;;;5.08;75.59;98651.09;4993422;28;20463;-68
2023/05/18 04:16:25;;;;;;;4.70;4.13;;;5.30;88.20;;;5.62;74.35;98654.31;5006327;28;20489;-70
2023/05/18 04:18:52;;;;;;;6.63;3.60;;;5.80;85.60;;;6.38;70.85;98646.00;4991770;28;20461;-68
2023/05/18 04:21:20;;;;;;;4.20;3.77;;;6.60;82.40;;;7.11;67.68;98663.78;5009400;28;20463;-70
2023/05/18 04:23:47;;;;;;;4.80;3.73;;;7.30;78.90;;;6.74;67.36;98604.38;5010699;28;20986;-70
2023/05/18 04:26:18;;;;;;;4.30;3.57;;;7.70;77.00;;;8.02;65.60;98665.78;5004970;28;20480;-70
2023/05/18 04:28:47;;;;;;;4.00;2.47;;;8.40;76.60;;;8.56;60.95;98667.41;5023330;28;20473;-69
2023/05/18 04:31:16;;;;;;;3.57;2.73;;;8.90;73.10;;;9.20;60.52;98663.22;5001764;28;20482;-69
2023/05/18 04:33:45;;;;;;;3.93;3.07;;;9.60;71.90;;;9.35;59.54;98668.56;4996254;28;20951;-69
2023/05/18 04:36:12;;;;;;;2.63;2.33;;;10.10;68.40;;;9.60;58.17;98662.78;5018765;28;20469;-69
2023/05/18 04:38:40;;;;;;;3.47;2.50;;;10.30;66.80;;;10.01;58.02;98655.88;5018522;28;20458;-70
2023/05/18 04:41:07;;;;;;;5.20;2.80;;;10.70;65.90;;;10.08;56.92;98680.19;5011081;28;20465;-70
2023/05/18 04:43:35;;;;;;;5.53;3.30;;;10.70;65.20;;;10.18;56.96;98669.06;5007781;28;21201;-70
2023/05/18 04:46:02;;;;;;;5.10;2.67;;;10.80;64.60;;;10.50;55.17;98672.22;4995885;28;20478;-69
2023/05/18 04:48:31;;;;;;;4.77;2.43;;;11.00;62.70;;;11.01;53.84;98670.16;5009443;28;20491;-69
2023/05/18 04:51:00;;;;;;;4.80;2.87;;;11.70;61.30;;;10.30;55.19;98663.94;5015312;28;20470;-72
2023/05/18 04:53:27;;;;;;;3.47;2.83;;;11.60;59.70;;;10.77;53.02;98665.06;4995607;28;20453;-70
2023/05/18 04:55:55;;;;;;;4.97;2.60;;;11.60;58.90;;;10.76;52.87;98673.38;5014227;28;20458;-70
2023/05/18 04:58:22;;;;;;;6.00;2.33;;;11.90;57.70;;;11.53;51.19;98681.34;5020133;28;20880;-71
2023/05/18 05:00:50;;;;;;;4.93;2.50;;;12.20;57.30;;;11.21;50.55;98645.88;5008993;28;20441;-70
2023/05/18 05:03:17;;;;;;;3.33;2.50;;;12.30;55.70;;;11.64;50.89;98679.06;5022737;28;20952;-70
2023/05/18 05:05:44;;;;;;;5.70;2.17;;;12.30;56.00;;;10.98;52.26;98674.09;5000492;28;20520;-69
2023/05/18 05:08:13;;;;;;;3.63;2.20;;;12.40;55.50;;;11.88;50.13;98678.44;4996534;28;20447;-71
2023/05/18 05:10:40;;;;;;;3.03;2.33;;;12.70;55.40;;;11.08;52.13;98681.84;5015569;28;20462;-70
2023/05/18 05:13:08;;;;;;;3.10;2.20;;;12.60;54.50;;;11.58;51.14;98681.53;5015967;28;21139;-70
2023/05/18 05:15:36;;;;;;;2.30;2.07;;;12.60;54.70;;;11.79;49.97;98679.72;4993836;28;20454;-69
2023/05/18 05:18:03;;;;;;;4.20;2.30;;;12.70;54.20;;;12.57;48.01;98686.31;4993820;28;20556;-69
2023/05/18 05:20:30;;;;;;;2.97;1.90;;;13.40;53.80;;;12.24;47.39;98599.72;4986844;28;20598;-71
2023/05/18 05:22:58;;;;;;;4.50;2.20;;;13.40;52.90;;;13.14;47.08;98679.47;5018340;28;20460;-69
2023/05/18 05:25:27;;;;;;;2.73;2.13;;;13.70;52.50;;;13.57;45.49;98676.16;5013906;28;20484;-68
2023/05/18 05:27:54;;;;;;;3.63;2.87;;;14.50;51.60;;;12.71;46.72;98653.75;5011497;28;20578;-71
2023/05/18 05:30:21;;;;;;;2.83;2.10;;;14.10;51.50;;;12.77;47.69;98669.19;5011995;28;20469;-69
2023/05/18 05:32:48;;;;;;;6.10;2.27;;;14.00;51.40;;;12.55;47.46;98668.63;5003333;28;20461;-69
2023/05/18 05:35:16;;;;;;;4.23;2.13;;;13.70;51.40;;;13.02;47.35;98682.00;5029102;28;20469;-68
2023/05/18 05:37:43;;;;;;;2.93;1.90;;;13.90;51.80;;;13.24;46.63;98679.81;5024438;28;20469;-69
2023/05/18 05:40:12;;;;;;;5.73;2.27;;;14.10;51.20;;;13.27;46.36;98684.84;5014353;28;20461;-69
2023/05/18 05:42:41;;;;;;;5.40;2.13;;;14.20;50.80;;;13.84;45.35;98692.22;5011480;28;20772;-73
2023/05/18 05:45:09;;;;;;;4.03;2.43;;;14.70;50.70;;;14.15;44.48;98684.25;5011909;28;20512;-71
2023/05/18 05:47:36;;;;;;;4.13;2.37;;;14.70;50.20;;;13.72;44.87;98680.41;5015803;28;20865;-69
2023/05/18 05:50:05;;;;;;;5.97;2.00;;;14.90;49.70;;;13.37;45.45;98688.94;4998177;28;20495;-71
2023/05/18 05:52:32;;;;;;;4.00;2.10;;;14.70;49.50;;;13.56;45.28;98689.91;5012536;28;20481;-69
2023/05/18 05:55:00;;;;;;;4.43;2.30;;;14.40;49.40;;;13.83;44.89;98684.31;4998997;28;20466;-71
2023/05/18 05:57:27;;;;;;;2.10;1.90;;;14.70;49.60;;;13.69;45.21;98697.13;5011770;28;20466;-71
2023/05/18 05:59:56;;;;;;;2.40;2.00;;;14.90;49.40;;;14.29;44.38;98684.97;4998606;28;20458;-69
2023/05/18 06:02:23;;;;;;;3.10;1.70;;;15.30;49.20;;;13.42;45.25;98680.97;5016714;28;20465;-73
2023/05/18 06:04:50;;;;;;;3.30;1.93;;;15.00;48.90;;;13.74;45.44;98686.47;5025956;28;20493;-71
2023/05/18 06:07:18;;;;;;;4.77;1.90;;;14.90;49.00;;;13.97;44.85;98683.16;5002009;28;20453;-72
2023/05/18 06:09:45;;;;;;;4.90;2.07;;;15.10;48.90;;;13.92;45.09;98679.44;5021451;28;20526;-70
2023/05/18 06:12:12;;;;;;;4.73;1.83;;;15.10;48.80;;;13.58;45.59;98677.81;4993437;28;20949;-70
2023/05/18 06:14:39;;;;;;;7.13;1.90;;;14.50;48.90;;;11.12;50.88;98683.09;4994653;28;20457;-71
2023/05/18 06:17:07;;;;;;;3.73;1.93;;;12.80;49.50;;;10.37;52.68;98694.53;5009608;28;20473;-70
2023/05/18 06:19:35;;;;;;;3.07;1.87;;;11.50;51.20;;;9.92;54.29;98689.44;5018597;28;20454;-71
2023/05/18 06:22:02;;;;;;;5.70;1.77;;;10.70;52.30;;;10.05;55.00;98686.84;5011882;28;20557;-73
2023/05/18 06:24:29;;;;;;;2.00;1.70;;;10.50;53.80;;;9.99;53.79;98692.19;5001543;28;20568;-71
2023/05/18 06:26:57;;;;;;;3.00;1.90;;;10.40;54.00;;;10.29;53.94;98686.59;5014314;28;20475;-71
2023/05/18 06:29:24;;;;;;;4.50;1.80;;;10.60;55.00;;;10.09;53.40;98676.50;4998267;28;20469;-71
2023/05/18 06:31:51;;;;;;;3.57;1.60;;;10.60;54.40;;;10.25;52.90;98682.63;5012888;28;20458;-75
2023/05/18 06:34:19;;;;;;;5.23;2.00;;;10.60;54.40;;;10.07;54.67;98683.94;5011373;28;20466;-72
2023/05/18 06:36:46;;;;;;;4.23;1.60;;;10.50;54.80;;;10.31;54.23;98681.81;4988146;28;20456;-72
2023/05/18 06:39:14;;;;;;;3.10;1.27;;;10.60;55.00;;;10.58;53.13;98684.72;5009985;28;20527;-73
2023/05/18 06:41:41;;;;;;;5.27;1.80;;;10.80;54.90;;;10.35;53.31;98685.78;5008993;28;20535;-72
2023/05/18 06:44:08;;;;;;;3.00;1.50;;;10.80;54.20;;;10.17;53.19;98683.59;4996415;28;20573;-74
2023/05/18 06:46:35;;;;;;;3.40;1.73;;;10.70;54.20;;;10.20;53.06;98673.22;5008180;28;20452;-72
2023/05/18 06:49:03;;;;;;;3.77;1.63;;;10.70;54.80;;;10.44;52.61;98684.66;5009720;28;20563;-73
2023/05/18 06:51:32;;;;;;;1.50;1.40;;;10.80;54.50;;;10.48;52.25;98660.78;5010750;28;21385;-69
2023/05/18 06:53:59;;;;;;;1.97;1.60;;;10.90;54.40;;;10.79;51.96;98674.84;5012817;28;20559;-73
2023/05/18 06:56:26;;;;;;;5.40;2.37;;;11.10;54.40;;;10.86;52.40;98681.13;5008853;28;20587;-72
2023/05/18 06:58:54;;;;;;;3.63;1.87;;;11.20;54.50;;;11.10;52.26;98689.75;5018144;28;20457;-72
2023/05/18 07:01:21;;;;;;;3.50;1.67;;;11.30;54.90;;;11.39;51.32;98680.47;5024023;28;20531;-73
2023/05/18 07:03:48;;;;;;;4.13;2.23;;;11.60;54.70;;;11.68;50.92;98686.56;5030765;28;20482;-72
2023/05/18 07:06:15;;;;;;;9.80;2.50;;;11.90;54.70;;;11.52;49.90;98684.22;5023928;28;20470;-72
2023/05/18 07:08:44;;;;;;;3.93;1.90;;;11.80;53.40;;;11.59;50.45;98669.66;5032793;28;20469;-72
2023/05/18 07:11:14;;;;;;;6.80;2.10;;;11.90;53.70;;;11.82;50.05;98691.97;5021789;28;20465;-71
2023/05/18 07:13:41;;;;;;;3.60;2.00;;;12.00;53.70;;;11.55;50.47;98684.66;5019761;28;21038;-73
2023/05/18 07:16:09;;;;;;;12.83;1.90;;;12.00;53.20;;;11.63;51.37;98686.34;4994627;28;20805;-73
2023/05/18 07:18:36;;;;;;;2.90;2.20;;;11.90;53.80;;;11.90;50.15;98692.63;4995647;28;20474;-71
2023/05/18 07:21:03;;;;;;;2.77;1.50;;;12.10;53.90;;;11.65;50.54;98695.09;5009554;28;20456;-72
2023/05/18 07:23:30;;;;;;;2.80;1.60;;;12.00;53.40;;;11.69;50.90;98693.66;4997811;28;20545;-70
2023/05/18 07:25:59;;;;;;;1.73;1.57;;;12.00;53.70;;;11.56;50.56;98675.50;5015610;28;20490;-70
2023/05/18 07:28:26;;;;;;;3.67;1.57;;;12.10;53.50;;;11.57;50.74;98689.88;5011120;28;20463;-70
2023/05/18 07:30:53;;;;;;;6.33;2.00;;;12.00;53.20;;;11.94;49.63;98693.03;4998805;28;20464;-73
2023/05/18 07:33:20;;;;;;;1.93;1.57;;;12.20;53.30;;;11.59;50.24;98685.91;4990158;28;20516;-70
2023/05/18 07:35:47;;;;;;;3.23;1.53;;;12.00;52.70;;;11.67;50.09;98675.94;4993655;28;20461;-70
2023/05/18 07:38:14;;;;;;;3.83;1.80;;;12.00;52.80;;;11.85;49.38;98681.56;5021634;28;20961;-70
2023/05/18 07:40:42;;;;;;;4.47;2.03;;;12.10;52.40;;;12.09;48.54;98679.31;5014499;28;20462;-72
2023/05/18 07:43:11;;;;;;;3.70;1.60;;;12.30;52.20;;;11.94;48.24;98686.81;5015572;28;20481;-70
2023/05/18 07:45:38;;;;;;;3.47;1.70;;;12.30;51.40;;;11.72;48.38;98678.84;5013715;28;20570;-69
2023/05/18 07:48:18;;;;;;;3.40;1.53;;;12.20;51.30;;;11.84;48.10;98681.81;5017663;28;20490;-70
2023/05/18 07:50:45;;;;;;;2.60;1.47;;;12.10;51.30;;;12.14;48.21;98682.22;5001645;28;20443;-69
2023/05/18 07:53:13;;;;;;;2.13;1.80;;;12.30;51.60;;;12.51;47.71;98672.78;5002287;28;20528;-69
2023/05/18 07:55:41;;;;;;;2.40;1.50;;;12.60;51.70;;;12.79;46.85;98672.53;5016868;28;20464;-69
2023/05/18 07:58:10;;;;;;;4.03;1.77;;;12.90;51.50;;;12.79;47.15;98655.41;4992860;28;20450;-70
2023/05/18 08:00:37;;;;;;;1.40;1.30;;;13.10;51.60;;;12.47;46.24;98675.13;5020002;28;20576;-69
2023/05/18 08:03:05;;;;;;;4.40;1.77;;;12.90;49.90;;;12.57;46.16;98677.38;5013481;28;20997;-69
2023/05/18 08:05:32;;;;;;;5.63;1.70;;;12.90;50.20;;;12.92;45.23;98676.22;5016861;28;20487;-69
2023/05/18 08:08:01;;;;;;;2.90;1.30;;;13.10;49.80;;;12.82;45.33;98668.56;5000807;28;20466;-70
2023/05/18 08:10:28;;;;;;;5.13;1.40;;;13.10;49.40;;;12.64;45.57;98680.06;5019124;28;20561;-69
2023/05/18 08:12:56;;;;;;;3.30;1.70;;;13.00;49.00;;;12.56;45.66;98673.00;5023046;28;20505;-72
2023/05/18 08:15:24;;;;;;;4.30;1.53;;;12.90;49.10;;;12.83;45.63;98667.50;4994197;28;21024;-70
2023/05/18 08:17:53;;;;;;;2.93;1.77;;;13.00;49.50;;;13.23;44.85;98672.75;5012900;28;20616;-72
2023/05/18 08:20:20;;;;;;;5.13;3.63;;;13.40;49.70;;;13.08;43.75;98664.03;4994048;28;20458;-69
2023/05/18 08:22:47;;;;;;;12.33;1.73;;;13.50;48.80;;;13.38;44.28;98680.59;5019915;28;20469;-70
2023/05/18 08:25:15;;;;;;;4.17;1.90;;;13.60;49.50;;;13.49;43.60;98676.38;5019966;28;20509;-70
2023/05/18 08:27:42;;;;;;;3.73;1.57;;;13.70;48.60;;;13.39;43.25;98670.56;4997153;28;20458;-68
2023/05/18 08:30:11;;;;;;;3.00;1.50;;;13.80;48.10;;;13.72;43.23;98674.97;5000482;28;20450;-69
2023/05/18 08:32:40;;;;;;;2.63;1.63;;;13.90;48.30;;;14.13;42.35;98681.75;5015634;28;20550;-72
2023/05/18 08:35:09;;;;;;;5.97;1.77;;;14.20;48.30;;;14.39;41.72;98666.25;5020233;28;20461;-71
2023/05/18 08:37:36;;;;;;;3.07;1.50;;;14.40;48.00;;;14.50;41.69;98664.69;5019934;28;20471;-70
2023/05/18 08:40:06;;;;;;;4.80;1.97;;;14.70;47.70;;;14.37;41.27;98611.31;5014515;28;21015;-80
2023/05/18 08:42:40;;;;;;;4.47;1.63;;;14.90;47.40;;;14.66;41.79;98663.28;5021774;28;20463;-69
2023/05/18 08:45:12;;;;;;;4.70;1.80;;;14.90;47.50;;;14.94;40.20;98664.66;5008838;28;20536;-70
2023/05/18 08:47:41;;;;;;;2.93;1.20;;;15.10;46.60;;;14.42;40.48;98657.66;5004776;28;20605;-69
2023/05/18 08:50:12;;;;;;;2.70;1.60;;;14.80;46.00;;;14.82;40.70;98650.16;5012994;28;20475;-72
2023/05/18 08:52:48;;;;;;;3.77;1.50;;;15.00;46.70;;;15.40;39.80;98650.66;5002065;28;20451;-70
2023/05/18 08:55:17;;;;;;;4.07;1.47;;;15.30;46.80;;;15.13;39.40;98653.75;4994433;28;21764;-69
2023/05/18 08:57:53;;;;;;;5.70;1.60;;;15.50;46.00;;;15.12;40.43;98657.53;5018284;28;20464;-68
2023/05/18 09:00:21;;;;;;;2.70;1.70;;;15.30;46.50;;;15.72;39.38;98655.84;5002320;28;20451;-71
2023/05/18 09:02:50;;;;;;;3.23;1.40;;;15.60;46.40;;;15.75;38.12;98652.63;5006866;28;20483;-74
2023/05/18 09:05:19;;;;;;;2.37;1.47;;;15.90;45.10;;;16.01;37.28;98634.22;5001520;28;20478;-73
2023/05/18 09:07:47;;;;;;;10.47;1.80;;;16.00;44.80;;;15.76;37.78;98648.84;4999827;28;20489;-69
2023/05/18 09:10:15;;;;;;;4.87;1.90;;;16.20;44.70;;;16.31;36.98;98655.09;5020865;28;20518;-70
2023/05/18 09:12:45;;;;;;;5.37;1.83;;;16.30;44.50;;;16.46;37.12;98656.50;5019561;28;20472;-70
2023/05/18 09:15:14;;;;;;;2.97;1.30;;;16.40;44.70;;;16.08;37.24;98656.72;5007416;28;20535;-70
2023/05/18 09:17:42;;;;;;;6.30;1.93;;;16.30;44.20;;;16.67;35.46;98658.59;4997761;28;21126;-69
2023/05/18 09:20:12;;;;;;;4.03;1.83;;;16.70;43.80;;;16.36;36.52;98652.47;5002111;28;20525;-69
2023/05/18 09:22:40;;;;;;;3.07;1.40;;;16.60;43.50;;;15.76;36.50;98664.34;5028438;28;20459;-71
2023/05/18 09:25:10;;;;;;;3.20;1.37;;;16.20;43.00;;;15.69;36.80;98659.00;5020225;28;20481;-70
2023/05/18 09:27:37;;;;;;;3.17;1.23;;;16.00;43.10;;;16.04;35.90;98654.72;5014132;28;20570;-71
2023/05/18 09:30:07;;;;;;;4.47;1.97;;;16.20;42.80;;;16.43;35.46;98650.44;5021038;28;20861;-70
2023/05/18 09:32:37;;;;;;;3.00;1.40;;;16.50;42.80;;;16.54;35.63;98653.41;5004066;28;20543;-69
2023/05/18 09:35:05;;;;;;;2.47;1.67;;;16.70;42.70;;;16.03;37.37;98653.06;5006540;28;21241;-70
2023/05/18 09:37:34;;;;;;;3.27;1.43;;;16.40;43.70;;;16.71;35.39;98640.69;5016496;28;20487;-70
2023/05/18 09:40:05;;;;;;;4.70;1.67;;;16.70;43.20;;;16.65;35.89;98647.13;5019031;28;20952;-68
2023/05/18 09:42:40;;;;;;;3.30;1.90;;;16.90;43.00;;;17.16;34.49;98642.97;5020718;28;20458;-70
2023/05/18 09:45:18;;;;;;;2.83;1.53;;;17.30;42.80;;;16.64;34.92;98631.81;5002189;28;21087;-70
2023/05/18 09:47:45;;;;;;;5.40;1.50;;;17.10;41.90;;;16.61;35.00;98651.41;5016196;28;20464;-69
2023/05/18 09:50:12;;;;;;;2.83;1.57;;;17.00;42.10;;;16.38;35.15;98639.44;5018955;28;20497;-70
2023/05/18 09:52:46;;;;;;;1.77;1.47;;;16.70;41.80;;;16.28;35.74;98636.47;5015703;28;20897;-70
2023/05/18 09:55:15;;;;;;;5.93;1.80;;;16.60;42.20;;;16.39;35.95;98640.28;5018357;28;20720;-71
2023/05/18 09:57:44;;;;;;;1.53;1.23;;;16.50;42.60;;;16.67;34.91;98635.94;5016447;28;20453;-73
2023/05/18 10:00:14;;;;;;;2.07;1.87;;;16.70;42.30;;;17.02;34.72;98626.03;5006350;28;20463;-70
2023/05/18 10:02:47;;;;;;;3.70;1.93;;;16.90;42.20;;;16.73;34.42;98640.47;5019645;28;20488;-69
2023/05/18 10:05:21;;;;;;;3.57;1.67;;;17.00;41.90;;;16.61;35.03;98631.47;4999761;28;20570;-71
2023/05/18 10:07:51;;;;;;;2.00;1.50;;;16.90;42.10;;;16.25;35.34;98591.44;5014019;28;20470;-70
2023/05/18 10:10:21;;;;;;;2.43;1.50;;;16.70;41.80;;;17.13;35.20;98622.44;5002638;28;20541;-70
2023/05/18 10:12:51;;;;;;;4.87;1.83;;;17.10;42.70;;;17.28;34.35;98622.72;5002860;28;20507;-71
2023/05/18 10:15:21;;;;;;;2.90;1.70;;;17.40;41.90;;;16.95;34.07;98618.81;5008214;28;20466;-71
2023/05/18 10:17:50;;;;;;;2.97;1.67;;;17.30;41.10;;;17.38;34.54;98621.28;5005101;28;20862;-70
2023/05/18 10:20:19;;;;;;;2.30;1.27;;;17.40;41.80;;;17.61;34.90;98622.19;5024521;28;20465;-71
2023/05/18 10:22:49;;;;;;;1.83;1.37;;;17.60;42.40;;;17.65;34.53;98628.81;5017119;28;20508;-73
2023/05/18 10:25:19;;;;;;;2.87;1.50;;;17.70;42.30;;;17.04;34.66;98612.97;5001791;28;20603;-71
2023/05/18 10:27:49;;;;;;;4.63;1.70;;;17.30;41.50;;;17.49;34.64;98619.53;4993424;28;20464;-70
2023/05/18 10:30:17;;;;;;;1.87;1.50;;;17.40;42.10;;;16.94;35.34;98614.41;5017911;28;20473;-72
2023/05/18 10:32:45;;;;;;;4.63;1.90;;;17.30;41.90;;;17.61;34.50;98605.81;5007045;28;20461;-72